Àlex Marín

Recruteur - Villarreal
14 Oct 2027
Jeudi
Processus

Personnalité

Adaptabilité (12) Ambition (10) Controverse (1) Loyauté (11) Pression (20) Professionnalisme (20) Sportivité (10) Tempérament (7)

Profil

Style d'entraînement Démocratique
Diplôme Continental A
Détermination 6
Gestion des joueurs 9
Motivation 15
Discipline 8
Satisfaction professionnelle
67%
Fatigue
0%
Rôle Recruteur
Salaire 19.0K p/s
Contrat 14.03.2028

Performance

Comportement Bon
Efficacité de l'entraînement
27%
Développement des joueurs
35%
Prévention des blessures
65%
Mise en place tactique
65%

Événements récents

A participé à une réunion de recrutement maintenant
A participé à une réunion de recrutement 7j
A participé à une réunion de recrutement 7j
A participé à une réunion de recrutement 7j
A observé un match 7j
A observé un match 7j
A observé un match 7j
A observé un match 7j

Suivi en cours

102
Joueur Club Statut Capacité Confiance Observé Dernière observation Dernier vote
Williams Mothiba Black Aces Actif 81 / 99 40% 1 05.07.2027 -
Majid Vafaei Rah Ahan Actif 114 / 108 40% 1 05.07.2027 -
Rodrigo Ely Almería Actif 123 / 119 51% 1 21.06.2027 -
Christos Mouzakitis Hull City Actif 133 / 133 40% 5 29.05.2027 -
William Gomes Porto Actif 133 / 147 40% 2 24.05.2027 -
Matías Gómez Granada Actif 108 / 126 40% 1 24.05.2027 -
Kevin Vazquez Cruz Azul Actif 137 / 135 40% 8 22.05.2027 -
Ibrahim Maza Bayer Leverkusen Actif 146 / 145 40% 1 22.05.2027 -
Senny Mayulu Paris Saint-Germain Actif 135 / 146 40% 1 19.05.2027 -
Yussif Saidu Zaragoza Actif 135 / 124 40% 1 19.05.2027 -
Jan Virgili Club Brugge Actif 137 / 132 40% 4 18.05.2027 -
Caleb Yirenkyi Coventry City Actif 136 / 139 40% 4 18.05.2027 -
Shea Lacey Wolverhampton Actif 115 / 132 40% 1 18.05.2027 -
Zane Albarus Cambridge United Actif 105 / 102 40% 1 18.05.2027 -
David Valencia Alianza Petrolera Actif 138 / 137 40% 1 17.05.2027 -
Sascha Britschgi Padova Actif 128 / 123 40% 1 17.05.2027 -
Lucas Høgsberg RC Strasbourg Actif 136 / 143 40% 1 15.05.2027 -
Jofre Torrents Ajax Actif 124 / 128 40% 1 14.05.2027 -
Joel McGregor Swindon Town Actif 85 / 100 40% 1 14.05.2027 -
Jorrel Hato Chelsea Actif 143 / 151 40% 4 10.05.2027 -
Yusi Alavés Actif 142 / 131 40% 1 10.05.2027 -
Gianluca Prestianni Benfica Actif 145 / 135 40% 2 09.05.2027 -
Oscar Schwartau Norwich City Actif 111 / 124 40% 2 09.05.2027 -
Lander Astiazarán Real Sociedad Actif 105 / 111 67% 2 08.05.2027 Observer
Josh King Chelsea Actif 147 / 149 40% 1 06.05.2027 -
Noah Nartey Olympique Lyonnais Actif 140 / 134 40% 1 06.05.2027 -
Othmane Maamma Watford Actif 125 / 125 40% 3 05.05.2027 -
David Mella Deportivo La Coruña Actif 142 / 130 40% 3 30.04.2027 -
Rodrigo Mora AS Roma Actif 136 / 145 40% 2 29.04.2027 -
Rayan Bournemouth Actif 127 / 141 40% 3 28.04.2027 -
Jayden Addai Como Actif 145 / 137 40% 2 26.04.2027 -
João Simões Sporting CP Actif 125 / 141 40% 1 25.04.2027 -
Mfundo Vilakazi Kaizer Chiefs Actif 116 / 126 40% 1 25.04.2027 -
Jon Garro Real Sociedad Actif 87 / 90 67% 1 24.04.2027 -
Warren Zaïre-Emery Paris Saint-Germain Actif 153 / 161 40% 2 21.04.2027 -
Kazunari Kita Real Sociedad Actif 94 / 104 40% 1 21.04.2027 -
Jonás Luna Santa Clara Actif 107 / 122 40% 1 19.04.2027 -
Yan Diomandé Real Madrid Actif 155 / 154 40% 3 18.04.2027 Observer
Izan Merino Málaga Actif 116 / 130 40% 1 18.04.2027 -
Olívio Tomé Benfica Actif 112 / 115 40% 3 16.04.2027 -
Jesús Rodríguez Como Actif 155 / 144 40% 1 16.04.2027 -
Matheus Gonçalves Al-Ahli Actif 138 / 133 40% 2 15.04.2027 -
Luís Guilherme Sporting CP Actif 133 / 133 40% 1 11.04.2027 -
Endrick Real Madrid Actif 135 / 150 40% 1 08.04.2027 -
Cyriaque Irié VfL Wolfsburg Actif 128 / 128 40% 1 08.04.2027 -
Samir El Mourabet RC Strasbourg Actif 118 / 130 40% 1 04.04.2027 -
Nico O'Reilly Manchester City Actif 161 / 155 40% 3 10.03.2027 -
Assane Diao Lazio Actif 156 / 148 40% 1 04.03.2027 -
Malick Fofana Sunderland Actif 136 / 144 40% 1 03.03.2027 -
Pedri Barcelona Actif 178 / 174 40% 11 27.12.2026 -
Jan Oblak Atlético Madrid Actif 167 / 163 40% 2 25.12.2026 -
Flavien-Enzo Boyomo Osasuna Actif 143 / 149 40% 1 25.12.2026 -
Aitor Paredes Athletic Bilbao Actif 148 / 151 40% 1 25.12.2026 -
Gianluigi Donnarumma Manchester City Actif 165 / 170 40% 1 25.12.2026 -
José Ángel Carmona Sevilla Actif 155 / 151 40% 3 21.12.2026 -
Marc Guéhi Manchester City Actif 164 / 169 40% 1 21.12.2026 -
Fran García Betis Actif 147 / 151 40% 1 20.12.2026 -
Erick Reyes Toluca Négociation 123 / 148 40% 4 19.12.2026 -
Raúl Rangel Sporting CP Actif 137 / 138 40% 2 18.12.2026 -
Álvaro Valles Betis Actif 156 / 142 40% 1 17.12.2026 -
Declan Rice Arsenal Actif 191 / 189 40% 4 16.12.2026 -
Aurélien Tchouaméni Real Madrid Actif 163 / 166 40% 3 16.12.2026 -
Wesley Fofana Chelsea Actif 153 / 162 40% 2 14.12.2026 -
Gavi Barcelona Actif 168 / 167 40% 3 11.12.2026 -
Julen Agirrezabala Racing Santander Actif 147 / 146 40% 1 11.12.2026 -
Sandro Tonali Tottenham Actif 169 / 170 40% 4 10.12.2026 -
Martín Zubimendi Arsenal Actif 156 / 161 40% 1 10.12.2026 -
David Soria Getafe Actif 137 / 138 40% 2 07.12.2026 -
Max O'Leary West Bromwich Albion Actif 127 / 124 40% 1 06.12.2026 -
Unai Simón Athletic Bilbao Actif 150 / 162 40% 1 05.12.2026 -
Tomás Marchiori Vélez Actif 133 / 132 40% 2 02.12.2026 -
Alfonso Herrero Málaga Actif 126 / 127 40% 3 02.12.2026 -
Alexis Mac Allister Liverpool Actif 171 / 159 40% 3 27.11.2026 -
Conor Gallagher Tottenham Actif 151 / 153 40% 2 25.11.2026 -
Antonio Sivera Alavés Actif 154 / 145 40% 2 23.11.2026 -
Facundo Cambeses Racing Club Actif 127 / 132 40% 2 21.11.2026 -
Senne Lammens Manchester United Actif 153 / 152 40% 2 18.11.2026 -
David Raya Arsenal Actif 153 / 162 40% 1 17.11.2026 -
Micky van de Ven Tottenham Actif 164 / 153 40% 1 10.11.2026 -
Jorge Soto Aguilas Doradas Actif 110 / 122 40% 1 10.11.2026 -
Eduardo Camavinga Real Madrid Actif 162 / 166 40% 1 08.11.2026 -
Luis Ingolotti Atlético Tucumán Actif 121 / 122 40% 1 07.11.2026 -
Enzo Fernández Manchester City Actif 167 / 171 40% 3 04.11.2026 -
Óscar Mingueza Crystal Palace Actif 137 / 146 40% 2 28.10.2026 -
Adam Wharton Crystal Palace Actif 156 / 158 40% 1 28.10.2026 -
Nico González Newcastle United Actif 157 / 158 40% 6 27.10.2026 -
Jules Koundé Barcelona Actif 159 / 154 40% 1 27.10.2026 -
Matthijs de Ligt Manchester United Actif 151 / 156 40% 3 26.10.2026 -
Jan Paul van Hecke Tottenham Actif 153 / 160 40% 5 25.10.2026 -
Vitinha Paris Saint-Germain Actif 191 / 178 40% 2 25.10.2026 -
Ryan Gravenberch Liverpool Actif 167 / 156 40% 1 23.10.2026 -
Moisés Caicedo Chelsea Actif 160 / 166 40% 1 22.10.2026 -
Amadou Onana Aston Villa Actif 162 / 158 40% 1 14.10.2026 -
Sven Botman Newcastle United Actif 170 / 156 40% 1 08.10.2026 -
Morten Hjulmand Atlético Madrid Actif 157 / 152 40% 2 06.10.2026 -
Johnny Cardoso Atlético Madrid Actif 151 / 158 40% 2 02.10.2026 -
Dani Vivian Athletic Bilbao Actif 156 / 151 40% 1 01.10.2026 -
Tino Livramento Newcastle United Actif 141 / 152 40% 1 30.09.2026 -
Hector Ramirez Newcastle United Actif 140 / 151 40% 1 26.09.2026 -
William Saliba Arsenal Actif 176 / 175 40% 1 26.09.2026 -
Levi Colwill Chelsea Actif 158 / 158 40% 1 18.09.2026 -
David Cordova Atletico Venezuela Actif 81 / 91 40% 1 11.08.2026 -